createdAt,value
2023-03-16T00:01:44.157Z,2.70
2023-03-16T00:04:13.692Z,2.80
2023-03-16T00:06:44.433Z,2.90
2023-03-16T00:09:13.915Z,2.80
2023-03-16T00:11:44.656Z,2.90
2023-03-16T00:14:14.192Z,2.73
2023-03-16T00:16:44.415Z,3.03
2023-03-16T00:19:14.906Z,2.97
2023-03-16T00:21:46.890Z,2.30
2023-03-16T00:24:19.231Z,2.80
2023-03-16T00:26:49.095Z,2.50
2023-03-16T00:29:18.037Z,2.07
2023-03-16T00:31:48.691Z,2.73
2023-03-16T00:34:19.313Z,2.53
2023-03-16T00:36:52.778Z,3.03
2023-03-16T00:39:22.907Z,2.40
2023-03-16T00:41:52.370Z,2.30
2023-03-16T00:44:21.708Z,2.57
2023-03-16T00:46:50.728Z,2.53
2023-03-16T00:49:20.895Z,2.60
2023-03-16T00:51:51.001Z,2.50
2023-03-16T00:54:20.093Z,2.07
2023-03-16T00:56:49.041Z,2.30
2023-03-16T00:59:20.237Z,2.40
2023-03-16T01:01:49.328Z,2.53
2023-03-16T01:04:17.854Z,2.53
2023-03-16T01:06:47.082Z,2.63
2023-03-16T01:09:18.176Z,3.20
2023-03-16T01:11:51.500Z,2.27
2023-03-16T01:14:21.209Z,2.70
2023-03-16T01:16:49.989Z,2.80
2023-03-16T01:19:19.910Z,2.57
2023-03-16T01:21:49.549Z,2.50
2023-03-16T01:24:20.344Z,2.40
2023-03-16T01:26:49.844Z,2.47
2023-03-16T01:29:19.355Z,2.20
2023-03-16T01:31:50.542Z,2.50
2023-03-16T01:34:21.209Z,2.67
2023-03-16T01:36:52.632Z,2.47
2023-03-16T01:39:23.324Z,2.40
2023-03-16T01:41:53.972Z,2.40
2023-03-16T01:44:31.550Z,3.10
2023-03-16T01:47:00.718Z,2.80
2023-03-16T01:49:35.582Z,2.20
2023-03-16T01:52:10.366Z,2.20
2023-03-16T01:54:47.475Z,2.83
2023-03-16T01:57:21.329Z,2.17
2023-03-16T01:59:57.524Z,1.90
2023-03-16T02:02:33.111Z,1.70
2023-03-16T02:05:08.631Z,2.20
2023-03-16T02:07:45.417Z,2.07
2023-03-16T02:10:19.335Z,2.67
2023-03-16T02:12:49.776Z,2.13
2023-03-16T02:15:19.451Z,2.17
2023-03-16T02:17:52.263Z,2.13
2023-03-16T02:20:40.811Z,2.30
2023-03-16T02:23:18.589Z,2.13
2023-03-16T02:26:03.259Z,1.90
2023-03-16T02:28:40.281Z,2.00
2023-03-16T02:31:13.573Z,1.90
2023-03-16T02:33:45.138Z,1.53
2023-03-16T02:36:17.976Z,1.90
2023-03-16T02:38:48.365Z,1.93
2023-03-16T02:41:21.240Z,1.50
2023-03-16T02:43:57.637Z,1.90
2023-03-16T02:46:36.319Z,1.97
2023-03-16T02:49:13.411Z,2.10
2023-03-16T02:51:43.944Z,1.67
2023-03-16T02:54:13.480Z,1.60
2023-03-16T02:56:42.526Z,2.07
2023-03-16T02:59:12.746Z,2.03
2023-03-16T03:01:43.541Z,2.00
2023-03-16T03:04:13.357Z,1.97
2023-03-16T03:06:43.388Z,1.73
2023-03-16T03:09:13.423Z,1.97
2023-03-16T03:11:43.100Z,1.80
2023-03-16T03:14:12.815Z,2.27
2023-03-16T03:16:47.444Z,1.90
2023-03-16T03:19:18.165Z,2.10
2023-03-16T03:21:48.143Z,1.93
2023-03-16T03:24:18.129Z,2.00
2023-03-16T03:26:47.155Z,2.20
2023-03-16T03:29:16.162Z,1.80
2023-03-16T03:31:47.164Z,2.27
2023-03-16T03:34:17.894Z,1.70
2023-03-16T03:36:49.067Z,2.00
2023-03-16T03:39:19.152Z,1.77
2023-03-16T03:41:49.660Z,2.03
2023-03-16T03:44:19.182Z,2.00
2023-03-16T03:46:50.990Z,2.00
2023-03-16T03:49:20.425Z,1.57
2023-03-16T03:51:50.470Z,1.97
2023-03-16T03:54:20.693Z,1.93
2023-03-16T03:56:50.218Z,2.10
2023-03-16T03:59:19.948Z,1.63
2023-03-16T04:01:54.452Z,1.80
2023-03-16T04:04:24.502Z,1.93
2023-03-16T04:06:53.392Z,2.13
2023-03-16T04:09:23.804Z,1.70
2023-03-16T04:11:54.241Z,1.90
2023-03-16T04:14:24.504Z,2.00
2023-03-16T04:16:56.736Z,1.77
2023-03-16T04:19:27.393Z,1.53
2023-03-16T04:21:57.452Z,2.10
2023-03-16T04:24:27.581Z,2.73
2023-03-16T04:26:56.132Z,2.23
2023-03-16T04:29:26.019Z,1.60
2023-03-16T04:31:56.539Z,2.07
2023-03-16T04:34:26.815Z,2.40
2023-03-16T04:36:56.218Z,2.20
2023-03-16T04:39:27.255Z,2.33
2023-03-16T04:41:57.496Z,1.70
2023-03-16T04:44:27.538Z,2.10
2023-03-16T04:46:57.972Z,1.93
2023-03-16T04:49:30.093Z,2.43
2023-03-16T04:51:59.474Z,2.30
2023-03-16T04:54:30.166Z,2.63
2023-03-16T04:57:01.358Z,2.30
2023-03-16T04:59:32.430Z,2.67
2023-03-16T05:02:02.541Z,2.03
2023-03-16T05:04:32.819Z,1.87
2023-03-16T05:07:02.514Z,1.90
2023-03-16T05:09:32.470Z,1.60
2023-03-16T05:12:01.565Z,1.73
2023-03-16T05:14:31.792Z,1.50
2023-03-16T05:17:03.906Z,2.10
2023-03-16T05:19:34.601Z,1.90
2023-03-16T05:22:04.742Z,2.23
2023-03-16T05:24:34.420Z,1.97
2023-03-16T05:27:05.016Z,1.77
2023-03-16T05:29:35.424Z,2.00
2023-03-16T05:32:06.534Z,2.00
2023-03-16T05:34:36.747Z,2.17
2023-03-16T05:37:07.028Z,1.67
2023-03-16T05:39:36.998Z,2.00
2023-03-16T05:42:08.921Z,2.30
2023-03-16T05:44:39.814Z,2.10
2023-03-16T05:47:12.515Z,2.30
2023-03-16T05:49:42.387Z,1.97
2023-03-16T05:52:12.922Z,2.17
2023-03-16T05:54:43.622Z,2.17
2023-03-16T05:57:13.747Z,1.90
2023-03-16T05:59:43.962Z,1.80
2023-03-16T06:02:16.201Z,1.87
2023-03-16T06:04:47.690Z,1.93
2023-03-16T06:07:17.480Z,1.90
2023-03-16T06:09:48.720Z,1.83
2023-03-16T06:12:18.849Z,2.10
2023-03-16T06:14:48.374Z,2.27
2023-03-16T06:17:19.424Z,2.20
2023-03-16T06:19:49.518Z,2.57
2023-03-16T06:22:19.279Z,2.20
2023-03-16T06:24:48.835Z,2.30
2023-03-16T06:27:20.036Z,2.20
2023-03-16T06:29:50.010Z,2.53
2023-03-16T06:32:21.999Z,2.53
2023-03-16T06:34:51.028Z,2.30
2023-03-16T06:37:21.060Z,2.20
2023-03-16T06:39:51.204Z,2.30
2023-03-16T06:42:20.868Z,2.53
2023-03-16T06:44:51.330Z,2.40
2023-03-16T06:47:21.995Z,2.37
2023-03-16T06:49:52.471Z,2.33
2023-03-16T06:52:22.471Z,2.47
2023-03-16T06:54:51.892Z,2.50
2023-03-16T06:57:20.950Z,2.40
2023-03-16T06:59:51.065Z,2.70
2023-03-16T07:02:24.332Z,2.80
2023-03-16T07:04:54.716Z,2.60
2023-03-16T07:07:24.641Z,3.07
2023-03-16T07:09:54.631Z,3.07
2023-03-16T07:12:24.725Z,2.70
2023-03-16T07:14:54.795Z,2.93
2023-03-16T07:17:26.338Z,3.13
2023-03-16T07:19:56.478Z,3.33
2023-03-16T07:22:26.990Z,3.83
2023-03-16T07:24:58.195Z,3.13
2023-03-16T07:27:28.071Z,3.17
2023-03-16T07:29:57.102Z,3.40
2023-03-16T07:32:27.529Z,3.30
2023-03-16T07:34:59.332Z,3.50
2023-03-16T07:37:29.422Z,3.43
2023-03-16T07:39:58.898Z,3.47
2023-03-16T07:42:28.127Z,3.13
2023-03-16T07:44:57.137Z,3.70
2023-03-16T07:47:31.163Z,4.10
2023-03-16T07:50:02.349Z,4.07
2023-03-16T07:52:31.404Z,4.13
2023-03-16T07:55:00.284Z,4.30
2023-03-16T07:57:31.038Z,4.70
2023-03-16T08:00:01.320Z,4.30
2023-03-16T08:02:32.712Z,3.50
2023-03-16T08:05:02.229Z,4.60
2023-03-16T08:07:32.681Z,4.53
2023-03-16T08:10:02.893Z,4.80
2023-03-16T08:12:33.950Z,4.53
2023-03-16T08:15:06.481Z,5.13
2023-03-16T08:17:38.521Z,4.40
2023-03-16T08:20:15.186Z,5.10
2023-03-16T08:22:46.467Z,4.97
2023-03-16T08:25:20.432Z,4.93
2023-03-16T08:27:50.363Z,4.83
2023-03-16T08:30:22.648Z,5.47
2023-03-16T08:32:58.087Z,5.73
2023-03-16T08:35:29.747Z,4.83
2023-03-16T08:38:00.017Z,4.23
2023-03-16T08:40:30.350Z,5.20
2023-03-16T08:43:00.125Z,4.90
2023-03-16T08:45:29.596Z,5.00
2023-03-16T08:48:00.415Z,4.87
2023-03-16T08:50:30.167Z,4.50
2023-03-16T08:53:01.595Z,5.40
2023-03-16T08:55:31.639Z,4.60
2023-03-16T08:58:02.630Z,4.97
2023-03-16T09:00:32.765Z,4.77
2023-03-16T09:03:04.855Z,4.17
2023-03-16T09:05:34.819Z,4.70
2023-03-16T09:08:05.433Z,5.03
2023-03-16T09:10:36.030Z,4.60
2023-03-16T09:13:06.164Z,5.30
2023-03-16T09:15:36.628Z,4.00
2023-03-16T09:18:08.364Z,4.83
2023-03-16T09:20:39.330Z,5.20
2023-03-16T09:23:09.542Z,4.30
2023-03-16T09:25:39.018Z,4.63
2023-03-16T09:28:08.834Z,4.97
2023-03-16T09:30:39.589Z,4.40
2023-03-16T09:33:10.876Z,4.00
2023-03-16T09:35:41.267Z,4.57
2023-03-16T09:38:10.868Z,4.00
2023-03-16T09:40:43.896Z,4.63
2023-03-16T09:43:50.999Z,4.40
2023-03-16T09:46:29.899Z,4.20
2023-03-16T09:49:02.966Z,4.73
2023-03-16T09:51:43.791Z,4.30
2023-03-16T09:54:27.186Z,3.80
2023-03-16T09:56:59.456Z,4.30
2023-03-16T10:00:04.906Z,3.83
2023-03-16T10:03:19.320Z,3.93
2023-03-16T10:14:50.005Z,3.87
2023-03-16T10:17:25.853Z,3.30
2023-03-16T10:20:01.254Z,3.00
2023-03-16T10:22:36.318Z,3.77
2023-03-16T10:25:18.453Z,4.43
2023-03-16T10:27:49.415Z,4.00
2023-03-16T10:30:31.006Z,4.20
2023-03-16T10:33:09.190Z,4.27
2023-03-16T10:35:49.352Z,4.10
2023-03-16T10:38:34.005Z,4.17
2023-03-16T10:41:03.555Z,3.60
2023-03-16T10:43:33.847Z,2.73
2023-03-16T10:46:04.488Z,3.30
2023-03-16T10:48:36.165Z,3.87
2023-03-16T10:51:13.676Z,3.53
2023-03-16T10:53:47.184Z,3.77
2023-03-16T10:56:26.073Z,3.33
2023-03-16T10:58:55.168Z,3.37
2023-03-16T11:01:28.966Z,3.00
2023-03-16T11:03:59.480Z,3.10
2023-03-16T11:06:32.321Z,3.50
2023-03-16T11:09:14.571Z,3.67
2023-03-16T11:11:50.163Z,2.67
2023-03-16T11:14:28.640Z,2.10
2023-03-16T11:17:09.453Z,1.93
2023-03-16T11:19:48.528Z,2.00
2023-03-16T11:22:21.771Z,1.70
2023-03-16T11:25:02.811Z,2.00
2023-03-16T11:27:41.705Z,1.70
2023-03-16T11:30:20.748Z,2.47
2023-03-16T11:32:54.706Z,2.00
2023-03-16T11:35:41.986Z,1.70
2023-03-16T11:38:21.085Z,1.23
2023-03-16T11:41:01.140Z,1.93
2023-03-16T11:43:54.447Z,1.50
2023-03-16T11:46:29.686Z,1.93
2023-03-16T11:49:43.649Z,1.63
2023-03-16T11:52:26.617Z,1.60
2023-03-16T11:55:16.825Z,2.00
2023-03-16T11:58:04.319Z,1.30
2023-03-16T12:00:46.634Z,1.63
2023-03-16T12:03:42.944Z,1.37
2023-03-16T12:06:31.641Z,1.17
2023-03-16T12:09:52.111Z,1.53
2023-03-16T12:12:44.526Z,1.67
2023-03-16T12:15:36.098Z,1.13
2023-03-16T12:18:16.689Z,1.47
2023-03-16T12:20:55.433Z,1.57
2023-03-16T12:23:34.652Z,1.20
2023-03-16T12:26:05.200Z,1.23
2023-03-16T12:28:35.019Z,1.23
2023-03-16T12:31:14.638Z,1.20
2023-03-16T12:34:04.612Z,1.20
2023-03-16T12:37:03.364Z,1.30
2023-03-16T12:40:07.871Z,1.20
2023-03-16T12:43:08.387Z,1.20
2023-03-16T12:45:49.208Z,1.13
2023-03-16T12:48:29.944Z,1.40
2023-03-16T12:51:04.331Z,1.50
2023-03-16T12:53:54.774Z,1.50
2023-03-16T12:56:31.365Z,1.50
2023-03-16T12:59:06.445Z,1.07
2023-03-16T13:01:44.796Z,1.40
2023-03-16T13:04:20.774Z,1.60
2023-03-16T13:06:52.484Z,1.10
2023-03-16T13:09:28.114Z,0.90
2023-03-16T13:11:57.664Z,1.00
2023-03-16T13:14:40.978Z,1.23
2023-03-16T13:17:31.967Z,1.30
2023-03-16T13:20:30.775Z,1.10
2023-03-16T13:23:24.675Z,0.90
2023-03-16T13:26:16.141Z,1.30
2023-03-16T13:28:53.283Z,0.80
2023-03-16T13:31:28.189Z,1.07
2023-03-16T13:34:00.385Z,0.80
2023-03-16T13:36:33.610Z,1.17
2023-03-16T13:39:15.561Z,1.00
2023-03-16T13:41:45.200Z,1.07
2023-03-16T13:44:17.711Z,1.13
2023-03-16T13:46:51.457Z,1.20
2023-03-16T13:49:21.612Z,1.00
2023-03-16T13:51:53.273Z,1.10
2023-03-16T13:54:44.346Z,1.30
2023-03-16T13:57:17.502Z,1.20
2023-03-16T13:59:47.365Z,0.80
2023-03-16T14:02:22.031Z,1.40
2023-03-16T14:04:53.119Z,1.40
2023-03-16T14:07:26.964Z,1.50
2023-03-16T14:09:59.590Z,1.10
2023-03-16T14:12:28.560Z,0.97
2023-03-16T14:14:57.673Z,1.10
2023-03-16T14:17:29.556Z,1.00
2023-03-16T14:20:03.464Z,1.30
2023-03-16T14:22:39.524Z,1.10
2023-03-16T14:25:18.613Z,1.20
2023-03-16T14:27:49.042Z,1.33
2023-03-16T14:30:24.946Z,1.27
2023-03-16T14:33:00.531Z,1.40
2023-03-16T14:35:33.112Z,1.93
2023-03-16T14:38:32.077Z,1.30
2023-03-16T14:41:08.517Z,1.17
2023-03-16T14:43:41.476Z,1.03
2023-03-16T14:46:22.479Z,0.97
2023-03-16T14:48:53.789Z,1.20
2023-03-16T14:51:24.534Z,0.97
2023-03-16T14:53:55.502Z,1.10
2023-03-16T14:56:33.058Z,1.00
2023-03-16T14:59:02.517Z,1.23
2023-03-16T15:01:33.037Z,1.20
2023-03-16T15:04:04.254Z,1.43
2023-03-16T15:06:35.012Z,1.60
2023-03-16T15:09:08.389Z,1.20
2023-03-16T15:11:38.490Z,1.67
2023-03-16T15:14:35.632Z,1.30
2023-03-16T15:17:06.012Z,1.20
2023-03-16T15:19:36.897Z,1.10
2023-03-16T15:22:08.828Z,1.00
2023-03-16T15:24:40.062Z,1.00
2023-03-16T15:27:25.308Z,0.97
2023-03-16T15:29:57.517Z,1.50
2023-03-16T15:32:27.247Z,1.30
2023-03-16T15:34:56.344Z,0.90
2023-03-16T15:37:27.801Z,1.20
2023-03-16T15:39:58.822Z,0.93
2023-03-16T15:42:29.448Z,1.30
2023-03-16T15:45:00.117Z,1.10
2023-03-16T15:47:30.060Z,1.40
2023-03-16T15:50:00.014Z,1.60
2023-03-16T15:52:35.864Z,1.50
2023-03-16T15:55:08.992Z,2.00
2023-03-16T15:57:38.901Z,1.20
2023-03-16T16:00:22.655Z,1.10
2023-03-16T16:02:52.628Z,1.23
2023-03-16T16:05:25.236Z,1.50
2023-03-16T16:07:54.850Z,1.20
2023-03-16T16:10:27.026Z,1.23
2023-03-16T16:12:58.274Z,0.90
2023-03-16T16:15:31.152Z,1.10
2023-03-16T16:18:20.361Z,1.10
2023-03-16T16:20:48.444Z,1.00
2023-03-16T16:23:18.657Z,0.90
2023-03-16T16:25:51.368Z,1.00
2023-03-16T16:28:24.805Z,1.17
2023-03-16T16:30:53.842Z,0.90
2023-03-16T16:33:29.050Z,0.93
2023-03-16T16:36:01.585Z,0.90
2023-03-16T16:38:32.956Z,0.90
2023-03-16T16:41:07.822Z,1.00
2023-03-16T16:43:41.696Z,1.10
2023-03-16T16:46:16.777Z,0.90
2023-03-16T16:48:48.829Z,0.83
2023-03-16T16:51:21.622Z,1.10
2023-03-16T16:53:52.146Z,1.27
2023-03-16T16:56:28.866Z,1.00
2023-03-16T16:58:59.426Z,1.20
2023-03-16T17:01:33.638Z,1.10
2023-03-16T17:04:03.447Z,1.30
2023-03-16T17:06:33.012Z,0.90
2023-03-16T17:09:03.014Z,0.90
2023-03-16T17:11:34.377Z,1.10
2023-03-16T17:14:08.138Z,1.20
2023-03-16T17:16:38.586Z,1.20
2023-03-16T17:19:19.017Z,0.80
2023-03-16T17:21:49.637Z,1.30
2023-03-16T17:24:19.376Z,0.93
2023-03-16T17:26:54.614Z,1.20
2023-03-16T17:29:28.751Z,4.30
2023-03-16T17:31:58.221Z,1.30
2023-03-16T17:34:30.466Z,1.20
2023-03-16T17:37:00.120Z,1.00
2023-03-16T17:39:32.434Z,1.10
2023-03-16T17:42:12.784Z,1.17
2023-03-16T17:44:46.195Z,1.13
2023-03-16T17:47:21.983Z,1.20
2023-03-16T17:49:52.117Z,1.20
2023-03-16T17:52:24.063Z,1.53
2023-03-16T17:54:55.736Z,1.27
2023-03-16T17:57:31.236Z,1.40
2023-03-16T18:00:01.323Z,1.27
2023-03-16T18:02:44.626Z,1.53
2023-03-16T18:05:21.407Z,1.27
2023-03-16T18:07:51.564Z,9.00
2023-03-16T18:10:25.388Z,2.33
2023-03-16T18:13:04.466Z,1.87
2023-03-16T18:15:37.621Z,1.53
2023-03-16T18:18:08.904Z,1.63
2023-03-16T18:20:38.788Z,1.53
2023-03-16T18:23:21.482Z,1.50
2023-03-16T18:25:55.201Z,1.43
2023-03-16T18:28:27.228Z,1.30
2023-03-16T18:30:59.011Z,1.30
2023-03-16T18:33:34.272Z,1.50
2023-03-16T18:36:07.853Z,1.20
2023-03-16T18:38:42.125Z,1.60
2023-03-16T18:41:18.719Z,1.40
2023-03-16T18:43:51.994Z,1.63
2023-03-16T18:46:27.132Z,1.60
2023-03-16T18:48:59.673Z,1.63
2023-03-16T18:51:30.159Z,1.60
2023-03-16T18:53:59.963Z,1.77
2023-03-16T18:56:31.290Z,1.73
2023-03-16T18:59:02.300Z,1.90
2023-03-16T19:01:35.232Z,1.47
2023-03-16T19:04:04.597Z,2.10
2023-03-16T19:06:37.963Z,1.87
2023-03-16T19:09:14.114Z,2.50
2023-03-16T19:11:46.921Z,2.27
2023-03-16T19:14:21.565Z,1.70
2023-03-16T19:16:52.650Z,1.90
2023-03-16T19:19:23.408Z,2.17
2023-03-16T19:21:56.454Z,1.87
2023-03-16T19:24:30.406Z,1.73
2023-03-16T19:27:00.232Z,1.80
2023-03-16T19:29:35.913Z,2.37
2023-03-16T19:32:05.052Z,2.57
2023-03-16T19:34:34.647Z,2.07
2023-03-16T19:37:04.120Z,2.10
2023-03-16T19:39:33.799Z,2.50
2023-03-16T19:42:03.449Z,2.13
2023-03-16T19:44:33.352Z,2.00
2023-03-16T19:47:05.367Z,2.50
2023-03-16T19:49:34.982Z,2.73
2023-03-16T19:52:07.940Z,2.00
2023-03-16T19:54:39.540Z,2.33
2023-03-16T19:57:15.353Z,2.20
2023-03-16T19:59:52.334Z,2.60
2023-03-16T20:02:28.331Z,1.80
2023-03-16T20:04:58.756Z,2.40
2023-03-16T20:07:28.333Z,2.47
2023-03-16T20:09:58.366Z,2.53
2023-03-16T20:12:29.836Z,2.43
2023-03-16T20:15:01.375Z,2.67
2023-03-16T20:17:33.047Z,2.90
2023-03-16T20:20:02.603Z,2.20
2023-03-16T20:22:32.138Z,2.87
2023-03-16T20:25:02.958Z,3.20
2023-03-16T20:27:32.648Z,2.67
2023-03-16T20:30:04.566Z,3.17
2023-03-16T20:32:37.597Z,3.80
2023-03-16T20:35:16.749Z,2.63
2023-03-16T20:37:46.569Z,3.17
2023-03-16T20:40:16.744Z,2.93
2023-03-16T20:42:46.380Z,3.60
2023-03-16T20:45:27.242Z,3.13
2023-03-16T20:47:56.779Z,3.07
2023-03-16T20:50:29.719Z,3.03
2023-03-16T20:52:59.096Z,3.23
2023-03-16T20:55:30.157Z,3.40
2023-03-16T20:57:58.920Z,2.63
2023-03-16T21:00:35.394Z,3.47
2023-03-16T21:03:12.991Z,3.30
2023-03-16T21:05:41.579Z,2.90
2023-03-16T21:08:10.878Z,3.50
2023-03-16T21:10:40.610Z,3.50
2023-03-16T21:13:21.500Z,3.37
2023-03-16T21:15:53.594Z,4.00
2023-03-16T21:18:23.127Z,3.67
2023-03-16T21:20:53.628Z,4.70
2023-03-16T21:23:25.140Z,4.10
2023-03-16T21:25:58.873Z,3.60
2023-03-16T21:28:31.829Z,3.50
2023-03-16T21:31:03.493Z,3.73
2023-03-16T21:33:37.286Z,4.23
2023-03-16T21:36:13.575Z,4.30
2023-03-16T21:38:42.085Z,3.60
2023-03-16T21:41:11.324Z,3.90
2023-03-16T21:43:40.555Z,3.50
2023-03-16T21:46:18.424Z,3.77
2023-03-16T21:48:50.991Z,3.47
2023-03-16T21:51:24.913Z,3.60
2023-03-16T21:53:54.563Z,3.70
2023-03-16T21:56:26.128Z,3.77
2023-03-16T21:58:56.512Z,3.53
2023-03-16T22:01:31.202Z,3.00
2023-03-16T22:04:06.115Z,3.33
2023-03-16T22:06:35.843Z,3.27
2023-03-16T22:09:04.856Z,2.97
2023-03-16T22:11:35.018Z,3.00
2023-03-16T22:14:03.499Z,3.40
2023-03-16T22:16:38.511Z,2.83
2023-03-16T22:19:14.043Z,2.60
2023-03-16T22:21:45.557Z,2.70
2023-03-16T22:24:19.355Z,3.73
2023-03-16T22:26:49.691Z,3.30
2023-03-16T22:29:24.499Z,3.40
2023-03-16T22:32:00.202Z,3.10
2023-03-16T22:34:33.927Z,3.67
2023-03-16T22:37:04.333Z,3.10
2023-03-16T22:39:39.012Z,2.77
2023-03-16T22:42:28.098Z,2.70
2023-03-16T22:44:57.029Z,3.03
2023-03-16T22:47:33.007Z,3.40
2023-03-16T22:50:03.662Z,4.40
2023-03-16T22:52:39.179Z,4.13
2023-03-16T22:55:16.789Z,6.97
2023-03-16T22:57:46.709Z,3.27
2023-03-16T23:00:21.411Z,4.20
2023-03-16T23:02:52.731Z,4.77
2023-03-16T23:05:25.184Z,3.57
2023-03-16T23:07:55.637Z,3.60
2023-03-16T23:10:29.617Z,4.00
2023-03-16T23:13:02.107Z,2.30
2023-03-16T23:15:33.429Z,4.60
2023-03-16T23:18:03.772Z,4.20
2023-03-16T23:20:34.073Z,3.07
2023-03-16T23:23:04.131Z,3.50
2023-03-16T23:25:34.093Z,3.50
2023-03-16T23:28:04.668Z,3.20
2023-03-16T23:30:35.453Z,2.43
2023-03-16T23:33:07.023Z,3.13
2023-03-16T23:35:36.113Z,3.10
2023-03-16T23:38:04.798Z,3.10
2023-03-16T23:40:37.699Z,3.00
2023-03-16T23:43:09.246Z,2.40
2023-03-16T23:45:44.900Z,3.03
2023-03-16T23:48:19.549Z,2.43
2023-03-16T23:50:52.637Z,2.73
2023-03-16T23:53:21.868Z,2.33
2023-03-16T23:55:52.617Z,2.20
2023-03-16T23:58:21.611Z,2.40
